createdAt,value
2022-12-26T00:00:25.368Z,993.18
2022-12-26T00:01:25.350Z,993.19
2022-12-26T00:02:25.380Z,993.19
2022-12-26T00:03:25.488Z,993.2
2022-12-26T00:04:50.502Z,993.15
2022-12-26T00:05:25.448Z,993.21
2022-12-26T00:06:25.453Z,993.19
2022-12-26T00:07:25.444Z,993.24
2022-12-26T00:08:25.476Z,993.21
2022-12-26T00:09:25.477Z,993.17
2022-12-26T00:10:25.498Z,993.05
2022-12-26T00:11:25.508Z,993.07
2022-12-26T00:12:25.527Z,993.04
2022-12-26T00:13:37.798Z,993.07
2022-12-26T00:14:25.558Z,993.01
2022-12-26T00:15:25.570Z,993.02
2022-12-26T00:16:25.625Z,992.99
2022-12-26T00:17:25.606Z,993.03
2022-12-26T00:18:25.617Z,993.02
2022-12-26T00:19:25.640Z,993.01
2022-12-26T00:20:25.662Z,993.03
2022-12-26T00:21:25.663Z,993.02
2022-12-26T00:22:25.711Z,992.97
2022-12-26T00:23:25.697Z,992.93
2022-12-26T00:24:25.716Z,993.05
2022-12-26T00:25:25.727Z,993.09
2022-12-26T00:26:25.749Z,993.04
2022-12-26T00:27:25.762Z,993.06
2022-12-26T00:28:25.776Z,993.05
2022-12-26T00:29:25.792Z,993.12
2022-12-26T00:30:25.809Z,993.15
2022-12-26T00:31:25.933Z,993.14
2022-12-26T00:32:25.836Z,993.11
2022-12-26T00:33:25.857Z,993.13
2022-12-26T00:34:25.877Z,993.2
2022-12-26T00:35:25.891Z,993.2
2022-12-26T00:36:25.909Z,993.25
2022-12-26T00:37:25.917Z,993.3
2022-12-26T00:38:25.963Z,993.24
2022-12-26T00:39:26.002Z,993.29
2022-12-26T00:40:25.963Z,993.25
2022-12-26T00:41:25.982Z,993.26
2022-12-26T00:42:25.997Z,993.27
2022-12-26T00:43:26.014Z,993.3
2022-12-26T00:44:26.038Z,993.28
2022-12-26T00:45:26.045Z,993.23
2022-12-26T00:46:26.091Z,993.16
2022-12-26T00:47:26.074Z,993.23
2022-12-26T00:48:26.097Z,993.29
2022-12-26T00:49:26.115Z,993.29
2022-12-26T00:50:29.670Z,993.33
2022-12-26T00:51:26.154Z,993.36
2022-12-26T00:52:26.155Z,993.39
2022-12-26T00:53:26.187Z,993.34
2022-12-26T00:54:26.210Z,993.27
2022-12-26T00:55:26.203Z,993.25
2022-12-26T00:56:26.216Z,993.28
2022-12-26T00:57:26.234Z,993.3
2022-12-26T00:58:26.290Z,993.3
2022-12-26T00:59:26.266Z,993.3
2022-12-26T01:00:26.281Z,993.32
2022-12-26T01:01:26.470Z,993.23
2022-12-26T01:02:26.372Z,993.25
2022-12-26T01:03:26.432Z,993.31
2022-12-26T01:04:26.340Z,993.28
2022-12-26T01:05:26.359Z,993.28
2022-12-26T01:06:26.373Z,993.25
2022-12-26T01:07:26.391Z,993.31
2022-12-26T01:08:26.410Z,993.32
2022-12-26T01:09:26.421Z,993.33
2022-12-26T01:10:26.466Z,993.42
2022-12-26T01:11:26.457Z,993.4
2022-12-26T01:12:26.467Z,993.36
2022-12-26T01:13:26.486Z,993.36
2022-12-26T01:14:26.503Z,993.37
2022-12-26T01:15:26.513Z,993.4
2022-12-26T01:16:26.560Z,993.39
2022-12-26T01:17:26.548Z,993.35
2022-12-26T01:18:26.568Z,993.33
2022-12-26T01:19:26.651Z,993.32
2022-12-26T01:20:26.598Z,993.28
2022-12-26T01:21:26.618Z,993.29
2022-12-26T01:22:26.629Z,993.26
2022-12-26T01:23:26.642Z,993.24
2022-12-26T01:24:26.660Z,993.21
2022-12-26T01:25:26.681Z,993.22
2022-12-26T01:26:26.716Z,993.32
2022-12-26T01:27:26.708Z,993.34
2022-12-26T01:28:26.734Z,993.32
2022-12-26T01:29:26.742Z,993.29
2022-12-26T01:30:26.756Z,993.36
2022-12-26T01:31:26.838Z,993.35
2022-12-26T01:32:26.788Z,993.42
2022-12-26T01:33:26.799Z,993.45
2022-12-26T01:34:26.818Z,993.52
2022-12-26T01:35:26.834Z,993.55
2022-12-26T01:36:26.849Z,993.64
2022-12-26T01:37:26.865Z,993.71
2022-12-26T01:38:26.899Z,993.66
2022-12-26T01:39:27.095Z,993.56
2022-12-26T01:40:26.912Z,993.53
2022-12-26T01:41:26.950Z,993.64
2022-12-26T01:42:26.972Z,993.55
2022-12-26T01:43:26.963Z,993.6
2022-12-26T01:44:26.976Z,993.61
2022-12-26T01:45:27.072Z,993.57
2022-12-26T01:46:27.147Z,993.59
2022-12-26T01:47:27.023Z,993.65
2022-12-26T01:48:27.044Z,993.74
2022-12-26T01:49:27.061Z,993.78
2022-12-26T01:50:27.076Z,993.75
2022-12-26T01:51:27.085Z,993.73
2022-12-26T01:52:27.105Z,993.73
2022-12-26T01:53:27.120Z,993.77
2022-12-26T01:54:37.031Z,993.74
2022-12-26T01:55:27.148Z,993.72
2022-12-26T01:56:27.162Z,993.7
2022-12-26T01:57:27.181Z,993.65
2022-12-26T01:58:27.219Z,993.67
2022-12-26T01:59:27.228Z,993.66
2022-12-26T02:00:27.227Z,993.62
2022-12-26T02:01:27.361Z,993.62
2022-12-26T02:02:27.396Z,993.67
2022-12-26T02:03:27.370Z,993.68
2022-12-26T02:04:27.290Z,993.7
2022-12-26T02:05:27.306Z,993.61
2022-12-26T02:06:27.332Z,993.55
2022-12-26T02:07:27.338Z,993.54
2022-12-26T02:08:27.362Z,993.5
2022-12-26T02:09:27.365Z,993.56
2022-12-26T02:10:27.387Z,993.54
2022-12-26T02:11:27.413Z,993.58
2022-12-26T02:12:36.799Z,993.56
2022-12-26T02:13:27.441Z,993.56
2022-12-26T02:14:27.475Z,993.56
2022-12-26T02:15:27.463Z,993.59
2022-12-26T02:16:27.524Z,993.57
2022-12-26T02:17:27.497Z,993.57
2022-12-26T02:18:27.514Z,993.56
2022-12-26T02:19:27.532Z,993.59
2022-12-26T02:20:27.557Z,993.62
2022-12-26T02:21:27.562Z,993.58
2022-12-26T02:22:27.574Z,993.58
2022-12-26T02:23:27.598Z,993.6
2022-12-26T02:24:27.607Z,993.67
2022-12-26T02:25:27.623Z,993.73
2022-12-26T02:26:27.644Z,993.73
2022-12-26T02:27:27.652Z,993.67
2022-12-26T02:28:27.670Z,993.55
2022-12-26T02:29:27.689Z,993.55
2022-12-26T02:30:27.749Z,993.63
2022-12-26T02:31:27.737Z,993.62
2022-12-26T02:32:27.733Z,993.58
2022-12-26T02:33:27.748Z,993.63
2022-12-26T02:34:27.765Z,993.55
2022-12-26T02:35:27.780Z,993.57
2022-12-26T02:36:27.797Z,993.53
2022-12-26T02:37:27.813Z,993.54
2022-12-26T02:38:27.827Z,993.56
2022-12-26T02:39:43.177Z,993.52
2022-12-26T02:40:27.861Z,993.47
2022-12-26T02:41:27.874Z,993.44
2022-12-26T02:42:27.890Z,993.45
2022-12-26T02:43:27.911Z,993.45
2022-12-26T02:44:27.936Z,993.48
2022-12-26T02:45:27.940Z,993.51
2022-12-26T02:46:28.068Z,993.55
2022-12-26T02:47:27.970Z,993.58
2022-12-26T02:48:27.986Z,993.61
2022-12-26T02:49:28.001Z,993.63
2022-12-26T02:50:28.019Z,993.66
2022-12-26T02:51:28.045Z,993.69
2022-12-26T02:52:28.053Z,993.74
2022-12-26T02:53:28.094Z,993.7
2022-12-26T02:54:28.097Z,993.72
2022-12-26T02:55:28.100Z,993.74
2022-12-26T02:56:28.119Z,993.62
2022-12-26T02:57:28.130Z,993.63
2022-12-26T02:58:28.143Z,993.57
2022-12-26T02:59:53.692Z,993.57
2022-12-26T03:00:28.179Z,993.62
2022-12-26T03:01:28.289Z,993.6
2022-12-26T03:02:28.463Z,993.57
2022-12-26T03:03:28.295Z,993.53
2022-12-26T03:04:28.242Z,993.52
2022-12-26T03:05:28.258Z,993.47
2022-12-26T03:06:28.271Z,993.48
2022-12-26T03:07:28.292Z,993.44
2022-12-26T03:08:28.325Z,993.49
2022-12-26T03:09:28.324Z,993.55
2022-12-26T03:10:28.335Z,993.53
2022-12-26T03:11:28.354Z,993.58
2022-12-26T03:12:28.366Z,993.58
2022-12-26T03:13:28.383Z,993.56
2022-12-26T03:14:28.398Z,993.55
2022-12-26T03:15:28.415Z,993.55
2022-12-26T03:16:28.461Z,993.63
2022-12-26T03:17:28.445Z,993.69
2022-12-26T03:18:56.693Z,993.65
2022-12-26T03:19:28.481Z,993.65
2022-12-26T03:20:28.522Z,993.63
2022-12-26T03:21:28.511Z,993.64
2022-12-26T03:22:28.524Z,993.65
2022-12-26T03:23:28.544Z,993.55
2022-12-26T03:24:28.558Z,993.52
2022-12-26T03:25:28.573Z,993.5
2022-12-26T03:26:28.586Z,993.52
2022-12-26T03:27:28.609Z,993.58
2022-12-26T03:28:28.622Z,993.62
2022-12-26T03:29:28.637Z,993.59
2022-12-26T03:30:28.679Z,993.57
2022-12-26T03:31:28.685Z,993.61
2022-12-26T03:32:28.687Z,993.68
2022-12-26T03:33:28.703Z,993.69
2022-12-26T03:34:28.746Z,993.67
2022-12-26T03:35:28.733Z,993.67
2022-12-26T03:36:28.750Z,993.68
2022-12-26T03:37:47.183Z,993.66
2022-12-26T03:38:28.779Z,993.67
2022-12-26T03:39:29.247Z,993.69
2022-12-26T03:40:28.812Z,993.67
2022-12-26T03:41:28.829Z,993.73
2022-12-26T03:42:28.841Z,993.78
2022-12-26T03:43:28.863Z,993.77
2022-12-26T03:44:28.875Z,993.79
2022-12-26T03:45:28.889Z,993.74
2022-12-26T03:46:28.933Z,993.81
2022-12-26T03:47:28.925Z,993.82
2022-12-26T03:48:28.941Z,993.71
2022-12-26T03:49:28.951Z,993.78
2022-12-26T03:50:28.995Z,993.8
2022-12-26T03:51:28.989Z,993.8
2022-12-26T03:52:29.001Z,993.78
2022-12-26T03:53:29.017Z,993.76
2022-12-26T03:54:29.032Z,993.75
2022-12-26T03:55:29.054Z,993.74
2022-12-26T03:56:30.922Z,993.74
2022-12-26T03:57:29.080Z,993.76
2022-12-26T03:58:29.097Z,993.69
2022-12-26T03:59:29.199Z,993.71
2022-12-26T04:00:29.134Z,993.75
2022-12-26T04:01:29.289Z,993.77
2022-12-26T04:02:29.422Z,993.76
2022-12-26T04:03:29.208Z,993.76
2022-12-26T04:04:29.203Z,993.74
2022-12-26T04:05:29.204Z,993.75
2022-12-26T04:06:29.246Z,993.77
2022-12-26T04:07:29.236Z,993.76
2022-12-26T04:08:29.254Z,993.78
2022-12-26T04:09:29.274Z,993.78
2022-12-26T04:10:29.289Z,993.74
2022-12-26T04:11:29.304Z,993.78
2022-12-26T04:12:29.375Z,993.77
2022-12-26T04:13:29.334Z,993.81
2022-12-26T04:14:29.350Z,993.83
2022-12-26T04:15:29.396Z,993.91
2022-12-26T04:16:29.382Z,993.91
2022-12-26T04:17:29.419Z,993.94
2022-12-26T04:18:29.410Z,993.88
2022-12-26T04:19:29.432Z,993.89
2022-12-26T04:20:29.443Z,993.86
2022-12-26T04:21:29.466Z,993.9
2022-12-26T04:22:29.501Z,993.85
2022-12-26T04:23:29.490Z,993.86
2022-12-26T04:24:29.512Z,993.87
2022-12-26T04:25:48.267Z,993.79
2022-12-26T04:26:29.542Z,993.81
2022-12-26T04:27:29.558Z,993.8
2022-12-26T04:28:29.570Z,993.91
2022-12-26T04:29:29.585Z,993.87
2022-12-26T04:30:29.612Z,993.85
2022-12-26T04:31:29.733Z,993.82
2022-12-26T04:32:29.627Z,993.85
2022-12-26T04:33:29.645Z,993.81
2022-12-26T04:34:29.666Z,993.77
2022-12-26T04:35:29.681Z,993.74
2022-12-26T04:36:29.694Z,993.78
2022-12-26T04:37:29.712Z,993.73
2022-12-26T04:38:29.755Z,993.73
2022-12-26T04:39:30.045Z,993.73
2022-12-26T04:40:29.759Z,993.74
2022-12-26T04:41:29.786Z,993.7
2022-12-26T04:42:29.789Z,993.72
2022-12-26T04:43:47.905Z,993.76
2022-12-26T04:44:29.822Z,993.74
2022-12-26T04:45:29.854Z,993.76
2022-12-26T04:46:29.886Z,993.81
2022-12-26T04:47:29.871Z,993.79
2022-12-26T04:48:29.882Z,993.76
2022-12-26T04:49:29.908Z,993.73
2022-12-26T04:50:29.923Z,993.73
2022-12-26T04:51:29.944Z,993.82
2022-12-26T04:52:29.959Z,993.83
2022-12-26T04:53:29.968Z,993.82
2022-12-26T04:54:30.016Z,993.84
2022-12-26T04:55:30.036Z,993.87
2022-12-26T04:56:30.016Z,993.93
2022-12-26T04:57:30.041Z,993.9
2022-12-26T04:58:30.058Z,993.88
2022-12-26T04:59:30.092Z,993.91
2022-12-26T05:00:30.075Z,993.92
2022-12-26T05:01:30.193Z,993.97
2022-12-26T05:02:30.245Z,994.06
2022-12-26T05:03:30.150Z,994.15
2022-12-26T05:04:30.137Z,994.13
2022-12-26T05:05:30.170Z,994.14
2022-12-26T05:06:30.206Z,994.12
2022-12-26T05:07:30.187Z,994.15
2022-12-26T05:08:30.240Z,994.22
2022-12-26T05:09:30.225Z,994.19
2022-12-26T05:10:30.288Z,994.19
2022-12-26T05:11:30.247Z,994.19
2022-12-26T05:12:30.261Z,994.22
2022-12-26T05:13:30.285Z,994.23
2022-12-26T05:14:30.294Z,994.26
2022-12-26T05:15:30.438Z,994.31
2022-12-26T05:16:30.414Z,994.31
2022-12-26T05:17:30.344Z,994.35
2022-12-26T05:18:30.356Z,994.32
2022-12-26T05:19:30.404Z,994.37
2022-12-26T05:20:30.404Z,994.33
2022-12-26T05:21:30.408Z,994.3
2022-12-26T05:22:30.420Z,994.34
2022-12-26T05:23:30.447Z,994.34
2022-12-26T05:24:30.451Z,994.32
2022-12-26T05:25:30.475Z,994.4
2022-12-26T05:26:30.516Z,994.39
2022-12-26T05:27:30.503Z,994.41
2022-12-26T05:28:30.530Z,994.39
2022-12-26T05:29:30.540Z,994.39
2022-12-26T05:30:30.564Z,994.4
2022-12-26T05:31:35.332Z,994.41
2022-12-26T05:32:30.583Z,994.44
2022-12-26T05:33:30.601Z,994.42
2022-12-26T05:34:30.614Z,994.37
2022-12-26T05:35:30.627Z,994.46
2022-12-26T05:36:30.644Z,994.43
2022-12-26T05:37:30.658Z,994.45
2022-12-26T05:38:30.690Z,994.48
2022-12-26T05:39:31.095Z,994.54
2022-12-26T05:40:30.716Z,994.56
2022-12-26T05:41:30.729Z,994.52
2022-12-26T05:42:30.790Z,994.48
2022-12-26T05:43:30.756Z,994.49
2022-12-26T05:44:30.770Z,994.5
2022-12-26T05:45:30.786Z,994.51
2022-12-26T05:46:30.845Z,994.46
2022-12-26T05:47:30.816Z,994.47
2022-12-26T05:48:30.836Z,994.54
2022-12-26T05:49:30.850Z,994.48
2022-12-26T05:50:30.868Z,994.53
2022-12-26T05:51:30.881Z,994.51
2022-12-26T05:52:30.901Z,994.54
2022-12-26T05:53:30.909Z,994.57
2022-12-26T05:54:30.928Z,994.53
2022-12-26T05:55:30.943Z,994.5
2022-12-26T05:56:30.963Z,994.52
2022-12-26T05:57:30.977Z,994.5
2022-12-26T05:58:31.022Z,994.51
2022-12-26T05:59:31.009Z,994.55
2022-12-26T06:00:31.046Z,994.57
2022-12-26T06:01:31.319Z,994.61
2022-12-26T06:02:31.211Z,994.67
2022-12-26T06:03:31.169Z,994.62
2022-12-26T06:04:31.147Z,994.62
2022-12-26T06:05:31.100Z,994.64
2022-12-26T06:06:31.121Z,994.65
2022-12-26T06:07:31.130Z,994.71
2022-12-26T06:08:31.156Z,994.68
2022-12-26T06:09:31.182Z,994.72
2022-12-26T06:10:31.184Z,994.64
2022-12-26T06:11:31.234Z,994.73
2022-12-26T06:12:31.213Z,994.77
2022-12-26T06:13:31.226Z,994.75
2022-12-26T06:14:31.273Z,994.71
2022-12-26T06:15:31.257Z,994.7
2022-12-26T06:16:31.368Z,994.76
2022-12-26T06:17:31.296Z,994.76
2022-12-26T06:18:31.314Z,994.75
2022-12-26T06:19:31.321Z,994.73
2022-12-26T06:20:31.341Z,994.73
2022-12-26T06:21:31.401Z,994.74
2022-12-26T06:22:31.369Z,994.73
2022-12-26T06:23:31.399Z,994.74
2022-12-26T06:24:31.401Z,994.74
2022-12-26T06:25:31.417Z,994.75
2022-12-26T06:26:31.433Z,994.82
2022-12-26T06:27:31.455Z,994.77
2022-12-26T06:28:31.469Z,994.79
2022-12-26T06:29:31.483Z,994.8
2022-12-26T06:30:31.519Z,994.8
2022-12-26T06:31:31.560Z,994.82
2022-12-26T06:32:31.528Z,994.79
2022-12-26T06:33:31.556Z,994.81
2022-12-26T06:34:31.557Z,994.8
2022-12-26T06:35:31.576Z,994.77
2022-12-26T06:36:31.593Z,994.76
2022-12-26T06:37:31.605Z,994.79
2022-12-26T06:38:31.624Z,994.74
2022-12-26T06:39:32.041Z,994.76
2022-12-26T06:40:31.655Z,994.77
2022-12-26T06:41:31.674Z,994.8
2022-12-26T06:42:31.683Z,994.77
2022-12-26T06:43:31.713Z,994.79
2022-12-26T06:44:31.745Z,994.76
2022-12-26T06:45:31.733Z,994.77
2022-12-26T06:46:31.804Z,994.7
2022-12-26T06:47:31.772Z,994.69
2022-12-26T06:48:31.799Z,994.61
2022-12-26T06:49:33.081Z,994.66
2022-12-26T06:50:31.823Z,994.66
2022-12-26T06:51:31.829Z,994.65
2022-12-26T06:52:31.842Z,994.62
2022-12-26T06:53:31.861Z,994.65
2022-12-26T06:54:31.882Z,994.61
2022-12-26T06:55:31.893Z,994.65
2022-12-26T06:56:31.907Z,994.67
2022-12-26T06:57:31.930Z,994.75
2022-12-26T06:58:31.940Z,994.78
2022-12-26T06:59:31.986Z,994.74
2022-12-26T07:00:32.119Z,994.78
2022-12-26T07:01:32.144Z,994.76
2022-12-26T07:02:32.120Z,994.8
2022-12-26T07:03:32.023Z,994.84
2022-12-26T07:04:32.036Z,994.83
2022-12-26T07:05:32.050Z,994.84
2022-12-26T07:06:32.074Z,994.84
2022-12-26T07:07:32.085Z,994.83
2022-12-26T07:08:32.097Z,994.85
2022-12-26T07:09:33.992Z,994.89
2022-12-26T07:10:32.131Z,994.86
2022-12-26T07:11:32.150Z,994.86
2022-12-26T07:12:32.174Z,994.9
2022-12-26T07:13:32.178Z,994.83
2022-12-26T07:14:32.205Z,994.86
2022-12-26T07:15:32.209Z,994.84
2022-12-26T07:16:32.268Z,994.82
2022-12-26T07:17:32.241Z,994.84
2022-12-26T07:18:32.283Z,994.8
2022-12-26T07:19:32.271Z,994.88
2022-12-26T07:20:32.288Z,994.93
2022-12-26T07:21:38.184Z,994.99
2022-12-26T07:22:32.329Z,995.01
2022-12-26T07:23:32.336Z,995.11
2022-12-26T07:24:32.349Z,995.15
2022-12-26T07:25:32.367Z,995.14
2022-12-26T07:26:32.382Z,995.18
2022-12-26T07:27:32.410Z,995.17
2022-12-26T07:28:32.414Z,995.19
2022-12-26T07:29:32.430Z,995.2
2022-12-26T07:30:32.443Z,995.2
2022-12-26T07:31:32.499Z,995.2
2022-12-26T07:32:32.480Z,995.15
2022-12-26T07:33:32.491Z,995.11
2022-12-26T07:34:32.529Z,995.06
2022-12-26T07:35:32.525Z,995.1
2022-12-26T07:36:32.550Z,995.09
2022-12-26T07:37:32.556Z,995.13
2022-12-26T07:38:32.572Z,995.12
2022-12-26T07:39:33.036Z,995.16
2022-12-26T07:40:32.606Z,995.16
2022-12-26T07:41:32.645Z,995.15
2022-12-26T07:42:32.848Z,995.16
2022-12-26T07:43:32.648Z,995.13
2022-12-26T07:44:32.665Z,995.11
2022-12-26T07:45:32.700Z,995.1
2022-12-26T07:46:32.736Z,995.09
2022-12-26T07:47:32.714Z,995.1
2022-12-26T07:48:32.733Z,995.09
2022-12-26T07:49:32.747Z,995.13
2022-12-26T07:50:32.786Z,995.16
2022-12-26T07:51:32.778Z,995.19
2022-12-26T07:52:32.790Z,995.21
2022-12-26T07:53:32.810Z,995.21
2022-12-26T07:54:32.825Z,995.22
2022-12-26T07:55:32.845Z,995.17
2022-12-26T07:56:32.855Z,995.21
2022-12-26T07:57:49.315Z,995.22
2022-12-26T07:58:32.887Z,995.24
2022-12-26T07:59:32.905Z,995.21
2022-12-26T08:00:32.948Z,995.24
2022-12-26T08:01:33.105Z,995.23
2022-12-26T08:02:33.134Z,995.23
2022-12-26T08:03:33.036Z,995.3
2022-12-26T08:04:32.982Z,995.33
2022-12-26T08:05:33.001Z,995.34
2022-12-26T08:06:33.037Z,995.38
2022-12-26T08:07:33.031Z,995.36
2022-12-26T08:08:33.050Z,995.39
2022-12-26T08:09:33.060Z,995.37
2022-12-26T08:10:33.075Z,995.34
2022-12-26T08:11:33.092Z,995.3
2022-12-26T08:12:33.111Z,995.27
2022-12-26T08:13:33.123Z,995.24
2022-12-26T08:14:33.140Z,995.25
2022-12-26T08:15:33.157Z,995.2
2022-12-26T08:16:33.190Z,995.22
2022-12-26T08:17:33.216Z,995.19
2022-12-26T08:18:33.204Z,995.18
2022-12-26T08:19:33.215Z,995.19
2022-12-26T08:20:33.237Z,995.18
2022-12-26T08:21:33.251Z,995.28
2022-12-26T08:22:33.292Z,995.31
2022-12-26T08:23:33.284Z,995.32
2022-12-26T08:24:33.299Z,995.37
2022-12-26T08:25:33.363Z,995.41
2022-12-26T08:26:33.330Z,995.42
2022-12-26T08:27:33.346Z,995.46
2022-12-26T08:28:33.358Z,995.48
2022-12-26T08:29:33.379Z,995.51
2022-12-26T08:30:33.389Z,995.46
2022-12-26T08:31:33.404Z,995.46
2022-12-26T08:32:33.427Z,995.47
2022-12-26T08:33:33.436Z,995.46
2022-12-26T08:34:33.457Z,995.45
2022-12-26T08:35:33.469Z,995.43
2022-12-26T08:36:33.484Z,995.41
2022-12-26T08:37:33.504Z,995.44
2022-12-26T08:38:33.943Z,995.4
2022-12-26T08:39:33.985Z,995.33
2022-12-26T08:40:42.903Z,995.33
2022-12-26T08:41:33.565Z,995.37
2022-12-26T08:42:40.000Z,995.41
2022-12-26T08:44:28.613Z,995.38
2022-12-26T08:45:27.585Z,995.43
2022-12-26T08:46:27.620Z,995.52
2022-12-26T08:47:27.621Z,995.55
2022-12-26T08:48:27.639Z,995.52
2022-12-26T08:49:27.663Z,995.52
2022-12-26T08:50:27.669Z,995.53
2022-12-26T08:51:27.678Z,995.59
2022-12-26T08:52:27.698Z,995.57
2022-12-26T08:53:27.708Z,995.52
2022-12-26T08:54:27.750Z,995.47
2022-12-26T08:55:27.741Z,995.45
2022-12-26T08:56:27.760Z,995.46
2022-12-26T08:57:27.773Z,995.4
2022-12-26T08:58:27.854Z,995.42
2022-12-26T08:59:27.807Z,995.46
2022-12-26T09:00:27.824Z,995.45
2022-12-26T09:01:27.941Z,995.5
2022-12-26T09:02:27.994Z,995.53
2022-12-26T09:03:27.902Z,995.49
2022-12-26T09:04:27.887Z,995.45
2022-12-26T09:05:27.904Z,995.48
2022-12-26T09:06:27.920Z,995.47
2022-12-26T09:07:27.939Z,995.39
2022-12-26T09:08:27.946Z,995.43
2022-12-26T09:09:27.968Z,995.47
2022-12-26T09:10:28.002Z,995.43
2022-12-26T09:11:27.997Z,995.42
2022-12-26T09:12:28.009Z,995.4
2022-12-26T09:13:28.027Z,995.38
2022-12-26T09:14:28.042Z,995.44
2022-12-26T09:15:28.064Z,995.48
2022-12-26T09:16:30.514Z,995.51
2022-12-26T09:17:28.204Z,995.52
2022-12-26T09:18:28.105Z,995.55
2022-12-26T09:19:28.121Z,995.6
2022-12-26T09:20:28.145Z,995.63
2022-12-26T09:21:28.154Z,995.63
2022-12-26T09:22:32.003Z,995.62
2022-12-26T09:23:28.186Z,995.66
2022-12-26T09:24:28.199Z,995.72
2022-12-26T09:25:28.222Z,995.72
2022-12-26T09:26:28.256Z,995.71
2022-12-26T09:27:28.247Z,995.74
2022-12-26T09:28:28.262Z,995.74
2022-12-26T09:29:28.284Z,995.73
2022-12-26T09:30:28.293Z,995.77
2022-12-26T09:31:28.387Z,995.74
2022-12-26T09:32:28.327Z,995.65
2022-12-26T09:33:28.342Z,995.68
2022-12-26T09:34:28.357Z,995.72
2022-12-26T09:35:28.376Z,995.72
2022-12-26T09:36:28.400Z,995.76
2022-12-26T09:37:28.404Z,995.78
2022-12-26T09:38:28.420Z,995.79
2022-12-26T09:39:28.436Z,995.82
2022-12-26T09:40:28.462Z,995.77
2022-12-26T09:41:28.476Z,995.8
2022-12-26T09:42:28.505Z,995.86
2022-12-26T09:43:28.512Z,995.83
2022-12-26T09:44:28.517Z,995.8
2022-12-26T09:45:28.530Z,995.86
2022-12-26T09:46:28.580Z,995.79
2022-12-26T09:47:28.576Z,995.82
2022-12-26T09:48:28.582Z,995.82
2022-12-26T09:49:28.595Z,995.77
2022-12-26T09:50:28.609Z,995.84
2022-12-26T09:51:28.618Z,995.84
2022-12-26T09:52:28.642Z,995.83
2022-12-26T09:53:28.655Z,995.82
2022-12-26T09:54:28.674Z,995.81
2022-12-26T09:55:28.690Z,995.81
2022-12-26T09:57:28.721Z,995.8
2022-12-26T09:58:28.765Z,995.8
2022-12-26T09:59:28.755Z,995.83
2022-12-26T10:00:28.780Z,995.89
2022-12-26T10:01:28.869Z,995.84
2022-12-26T10:02:28.936Z,995.78
2022-12-26T10:03:28.820Z,995.8
2022-12-26T10:04:30.321Z,995.83
2022-12-26T10:05:28.849Z,995.82
2022-12-26T10:06:28.863Z,995.85
2022-12-26T10:07:28.882Z,995.84
2022-12-26T10:08:28.899Z,995.86
2022-12-26T10:09:28.912Z,995.85
2022-12-26T10:10:28.931Z,995.84
2022-12-26T10:11:28.946Z,995.9
2022-12-26T10:12:28.962Z,995.93
2022-12-26T10:13:28.980Z,995.84
2022-12-26T10:14:29.023Z,995.92
2022-12-26T10:15:29.165Z,995.93
2022-12-26T10:16:29.027Z,995.92
2022-12-26T10:17:29.038Z,995.9
2022-12-26T10:18:29.059Z,995.94
2022-12-26T10:19:32.630Z,995.96
2022-12-26T10:20:29.089Z,996.04
2022-12-26T10:21:29.102Z,995.97
2022-12-26T10:22:29.123Z,995.96
2022-12-26T10:23:29.134Z,995.95
2022-12-26T10:24:29.152Z,995.99
2022-12-26T10:25:33.683Z,996.02
2022-12-26T10:26:29.191Z,996.03
2022-12-26T10:27:29.215Z,996.06
2022-12-26T10:28:29.215Z,996.05
2022-12-26T10:29:29.229Z,996.02
2022-12-26T10:30:29.275Z,996.04
2022-12-26T10:31:29.335Z,996.03
2022-12-26T10:32:29.273Z,995.95
2022-12-26T10:33:29.294Z,995.97
2022-12-26T10:34:29.312Z,995.98
2022-12-26T10:35:29.325Z,995.92
2022-12-26T10:36:29.345Z,995.9
2022-12-26T10:37:29.365Z,995.93
2022-12-26T10:38:29.374Z,995.89
2022-12-26T10:39:29.392Z,995.83
2022-12-26T10:40:29.410Z,995.96
2022-12-26T10:41:29.421Z,995.92
2022-12-26T10:42:29.439Z,995.93
2022-12-26T10:43:29.457Z,995.99
2022-12-26T10:44:29.467Z,995.9
2022-12-26T10:45:29.490Z,995.94
2022-12-26T10:46:29.569Z,995.87
2022-12-26T10:47:29.518Z,995.95
2022-12-26T10:48:29.535Z,995.94
2022-12-26T10:49:29.551Z,995.92
2022-12-26T10:50:29.606Z,995.93
2022-12-26T10:51:29.591Z,995.94
2022-12-26T10:52:29.595Z,995.89
2022-12-26T10:53:29.617Z,995.91
2022-12-26T10:54:29.629Z,995.95
2022-12-26T10:55:31.523Z,995.88
2022-12-26T10:56:29.661Z,995.88
2022-12-26T10:57:29.680Z,995.84
2022-12-26T10:58:29.694Z,995.87
2022-12-26T10:59:29.778Z,995.82
2022-12-26T11:00:29.738Z,995.84
2022-12-26T11:01:29.766Z,995.87
2022-12-26T11:02:29.945Z,995.89
2022-12-26T11:03:29.793Z,995.91
2022-12-26T11:05:11.517Z,995.89
2022-12-26T11:06:17.691Z,995.86
2022-12-26T11:07:17.707Z,995.91
2022-12-26T11:08:17.723Z,995.88
2022-12-26T11:09:17.739Z,995.86
2022-12-26T11:10:17.821Z,995.92
2022-12-26T11:11:17.770Z,995.82
2022-12-26T11:12:17.787Z,995.82
2022-12-26T11:13:17.803Z,995.88
2022-12-26T11:14:17.818Z,995.86
2022-12-26T11:15:17.832Z,995.88
2022-12-26T11:16:17.893Z,995.93
2022-12-26T11:17:17.866Z,995.89
2022-12-26T11:18:17.915Z,995.91
2022-12-26T11:19:17.896Z,995.97
2022-12-26T11:20:17.942Z,995.93
2022-12-26T11:21:17.932Z,995.95
2022-12-26T11:22:17.950Z,995.9
2022-12-26T11:23:17.963Z,995.96
2022-12-26T11:24:17.986Z,995.92
2022-12-26T11:25:18.006Z,995.95
2022-12-26T11:26:18.011Z,995.91
2022-12-26T11:27:18.025Z,995.93
2022-12-26T11:28:18.045Z,995.82
2022-12-26T11:29:18.061Z,995.89
2022-12-26T11:30:18.088Z,995.87
2022-12-26T11:31:18.122Z,995.87
2022-12-26T11:32:18.104Z,995.85
2022-12-26T11:33:18.125Z,995.84
2022-12-26T11:34:18.163Z,995.81
2022-12-26T11:35:18.162Z,995.81
2022-12-26T11:36:18.171Z,995.78
2022-12-26T11:37:18.193Z,995.83
2022-12-26T11:38:18.209Z,995.82
2022-12-26T11:39:18.221Z,995.74
2022-12-26T11:40:18.436Z,995.81
2022-12-26T11:41:18.248Z,995.8
2022-12-26T11:42:18.268Z,995.78
2022-12-26T11:43:18.285Z,995.82
2022-12-26T11:44:18.298Z,995.78
2022-12-26T11:45:18.319Z,995.82
2022-12-26T11:46:18.379Z,995.84
2022-12-26T11:47:18.349Z,995.82
2022-12-26T11:48:18.365Z,995.79
2022-12-26T11:49:18.376Z,995.79
2022-12-26T11:50:18.421Z,995.78
2022-12-26T11:51:18.409Z,995.76
2022-12-26T11:52:18.420Z,995.74
2022-12-26T11:53:18.441Z,995.73
2022-12-26T11:54:18.454Z,995.76
2022-12-26T11:55:18.476Z,995.73
2022-12-26T11:56:18.489Z,995.77
2022-12-26T11:57:18.519Z,995.71
2022-12-26T11:58:18.521Z,995.76
2022-12-26T11:59:18.542Z,995.7
2022-12-26T12:00:18.551Z,995.76
2022-12-26T12:01:18.628Z,995.69
2022-12-26T12:02:18.610Z,995.75
2022-12-26T12:03:18.707Z,995.72
2022-12-26T12:04:18.615Z,995.71
2022-12-26T12:05:18.632Z,995.73
2022-12-26T12:06:18.681Z,995.76
2022-12-26T12:07:18.665Z,995.73
2022-12-26T12:08:18.682Z,995.72
2022-12-26T12:09:18.696Z,995.7
2022-12-26T12:10:18.724Z,995.67
2022-12-26T12:11:18.728Z,995.77
2022-12-26T12:12:18.751Z,995.69
2022-12-26T12:13:18.763Z,995.68
2022-12-26T12:14:18.782Z,995.71
2022-12-26T12:15:18.802Z,995.64
2022-12-26T12:16:18.848Z,995.67
2022-12-26T12:17:18.823Z,995.65
2022-12-26T12:18:18.840Z,995.64
2022-12-26T12:19:18.860Z,995.69
2022-12-26T12:20:18.872Z,995.63
2022-12-26T12:21:18.888Z,995.68
2022-12-26T12:22:18.927Z,995.66
2022-12-26T12:23:18.918Z,995.68
2022-12-26T12:24:18.947Z,995.73
2022-12-26T12:25:18.955Z,995.67
2022-12-26T12:26:18.970Z,995.68
2022-12-26T12:27:18.981Z,995.7
2022-12-26T12:28:19.005Z,995.66
2022-12-26T12:29:19.022Z,995.65
2022-12-26T12:30:19.033Z,995.65
2022-12-26T12:31:19.121Z,995.61
2022-12-26T12:32:19.064Z,995.58
2022-12-26T12:33:19.090Z,995.55